sensor_id;sensor_type;location;lat;lon;timestamp;pressure;altitude;pressure_sealevel;temperature;humidity
76872;BME280;65840;52.220;0.152;2022-12-10T00:02:14;100926.79;;;4.49;53.41
76872;BME280;65840;52.220;0.152;2022-12-10T00:04:40;100925.60;;;4.79;53.34
76872;BME280;65840;52.220;0.152;2022-12-10T00:07:06;100927.55;;;4.83;53.18
76872;BME280;65840;52.220;0.152;2022-12-10T00:09:31;100920.13;;;4.46;53.78
76872;BME280;65840;52.220;0.152;2022-12-10T00:11:57;100914.33;;;4.81;53.62
76872;BME280;65840;52.220;0.152;2022-12-10T00:14:22;100914.88;;;4.46;54.24
76872;BME280;65840;52.220;0.152;2022-12-10T00:16:48;100914.48;;;4.42;53.83
76872;BME280;65840;52.220;0.152;2022-12-10T00:19:13;100913.11;;;4.52;54.10
76872;BME280;65840;52.220;0.152;2022-12-10T00:21:39;100914.33;;;4.47;54.13
76872;BME280;65840;52.220;0.152;2022-12-10T00:24:05;100916.56;;;4.56;52.27
76872;BME280;65840;52.220;0.152;2022-12-10T00:26:32;100915.55;;;4.14;53.45
76872;BME280;65840;52.220;0.152;2022-12-10T00:28:56;100919.49;;;4.44;53.12
76872;BME280;65840;52.220;0.152;2022-12-10T00:31:22;100924.71;;;4.36;53.78
76872;BME280;65840;52.220;0.152;2022-12-10T00:33:47;100926.09;;;4.27;53.59
76872;BME280;65840;52.220;0.152;2022-12-10T00:36:14;100925.01;;;4.21;53.72
76872;BME280;65840;52.220;0.152;2022-12-10T00:38:37;100925.74;;;4.18;53.73
76872;BME280;65840;52.220;0.152;2022-12-10T00:41:03;100927.98;;;4.38;53.97
76872;BME280;65840;52.220;0.152;2022-12-10T00:43:28;100931.62;;;4.53;52.75
76872;BME280;65840;52.220;0.152;2022-12-10T00:45:54;100935.26;;;4.14;53.34
76872;BME280;65840;52.220;0.152;2022-12-10T00:48:19;100935.54;;;4.29;53.72
76872;BME280;65840;52.220;0.152;2022-12-10T00:50:54;100939.12;;;3.68;53.80
76872;BME280;65840;52.220;0.152;2022-12-10T00:53:10;100938.97;;;3.77;54.06
76872;BME280;65840;52.220;0.152;2022-12-10T00:55:35;100939.01;;;3.98;53.81
76872;BME280;65840;52.220;0.152;2022-12-10T00:58:01;100940.39;;;4.24;54.02
76872;BME280;65840;52.220;0.152;2022-12-10T01:00:26;100940.61;;;4.01;53.42
76872;BME280;65840;52.220;0.152;2022-12-10T01:02:53;100941.75;;;4.12;53.71
76872;BME280;65840;52.220;0.152;2022-12-10T01:05:18;100943.88;;;4.14;53.64
76872;BME280;65840;52.220;0.152;2022-12-10T01:07:43;100944.40;;;4.12;53.68
76872;BME280;65840;52.220;0.152;2022-12-10T01:10:09;100948.02;;;3.89;53.70
76872;BME280;65840;52.220;0.152;2022-12-10T01:12:35;100949.49;;;3.82;53.52
76872;BME280;65840;52.220;0.152;2022-12-10T01:15:01;100948.72;;;4.10;53.39
76872;BME280;65840;52.220;0.152;2022-12-10T01:17:26;100953.67;;;4.12;52.64
76872;BME280;65840;52.220;0.152;2022-12-10T01:19:51;100952.50;;;3.95;52.77
76872;BME280;65840;52.220;0.152;2022-12-10T01:22:17;100954.43;;;3.89;53.31
76872;BME280;65840;52.220;0.152;2022-12-10T01:24:43;100957.86;;;3.82;53.32
76872;BME280;65840;52.220;0.152;2022-12-10T01:27:08;100958.39;;;3.91;53.27
76872;BME280;65840;52.220;0.152;2022-12-10T01:29:33;100961.27;;;3.90;53.06
76872;BME280;65840;52.220;0.152;2022-12-10T01:31:59;100953.24;;;3.81;53.41
76872;BME280;65840;52.220;0.152;2022-12-10T01:34:25;100951.28;;;3.90;53.34
76872;BME280;65840;52.220;0.152;2022-12-10T01:36:52;100951.74;;;3.60;53.52
76872;BME280;65840;52.220;0.152;2022-12-10T01:39:16;100952.31;;;3.74;53.09
76872;BME280;65840;52.220;0.152;2022-12-10T01:41:44;100952.12;;;3.71;53.01
76872;BME280;65840;52.220;0.152;2022-12-10T01:46:34;100958.08;;;3.75;53.16
76872;BME280;65840;52.220;0.152;2022-12-10T01:49:01;100958.05;;;3.70;52.54
76872;BME280;65840;52.220;0.152;2022-12-10T01:51:24;100956.95;;;3.71;53.21
76872;BME280;65840;52.220;0.152;2022-12-10T01:53:49;100955.87;;;3.52;52.66
76872;BME280;65840;52.220;0.152;2022-12-10T01:56:16;100957.59;;;3.88;52.96
76872;BME280;65840;52.220;0.152;2022-12-10T01:58:40;100959.74;;;3.58;52.81
76872;BME280;65840;52.220;0.152;2022-12-10T02:01:11;100959.68;;;3.48;53.01
76872;BME280;65840;52.220;0.152;2022-12-10T02:03:38;100964.62;;;3.55;52.64
76872;BME280;65840;52.220;0.152;2022-12-10T02:06:03;100966.99;;;3.50;52.43
76872;BME280;65840;52.220;0.152;2022-12-10T02:08:26;100971.42;;;3.53;52.78
76872;BME280;65840;52.220;0.152;2022-12-10T02:11:01;100971.80;;;3.39;53.19
76872;BME280;65840;52.220;0.152;2022-12-10T02:13:18;100972.12;;;3.79;52.66
76872;BME280;65840;52.220;0.152;2022-12-10T02:15:41;100971.73;;;3.32;52.37
76872;BME280;65840;52.220;0.152;2022-12-10T02:18:05;100970.97;;;3.40;53.01
76872;BME280;65840;52.220;0.152;2022-12-10T02:20:32;100972.34;;;3.44;52.51
76872;BME280;65840;52.220;0.152;2022-12-10T02:22:57;100975.17;;;3.32;52.46
76872;BME280;65840;52.220;0.152;2022-12-10T02:25:24;100968.65;;;3.52;52.12
76872;BME280;65840;52.220;0.152;2022-12-10T02:27:49;100966.86;;;3.56;52.38
76872;BME280;65840;52.220;0.152;2022-12-10T02:30:11;100965.13;;;3.21;52.76
76872;BME280;65840;52.220;0.152;2022-12-10T02:32:38;100966.41;;;3.50;52.27
76872;BME280;65840;52.220;0.152;2022-12-10T02:35:05;100969.85;;;3.79;52.82
76872;BME280;65840;52.220;0.152;2022-12-10T02:37:30;100963.61;;;3.32;52.80
76872;BME280;65840;52.220;0.152;2022-12-10T02:39:54;100962.57;;;3.05;53.27
76872;BME280;65840;52.220;0.152;2022-12-10T02:42:18;100959.49;;;3.11;52.82
76872;BME280;65840;52.220;0.152;2022-12-10T02:44:43;100958.13;;;3.53;53.15
76872;BME280;65840;52.220;0.152;2022-12-10T02:47:09;100958.25;;;3.01;52.28
76872;BME280;65840;52.220;0.152;2022-12-10T02:49:34;100960.77;;;2.99;52.41
76872;BME280;65840;52.220;0.152;2022-12-10T02:52:04;100968.33;;;3.50;52.47
76872;BME280;65840;52.220;0.152;2022-12-10T02:54:36;100965.84;;;3.45;52.42
76872;BME280;65840;52.220;0.152;2022-12-10T02:56:54;100962.42;;;2.94;52.58
76872;BME280;65840;52.220;0.152;2022-12-10T02:59:19;100963.45;;;2.85;53.03
76872;BME280;65840;52.220;0.152;2022-12-10T03:01:48;100961.76;;;3.04;53.05
76872;BME280;65840;52.220;0.152;2022-12-10T03:04:11;100961.94;;;2.81;53.08
76872;BME280;65840;52.220;0.152;2022-12-10T03:06:36;100961.79;;;3.18;52.50
76872;BME280;65840;52.220;0.152;2022-12-10T03:09:01;100963.85;;;2.80;53.10
76872;BME280;65840;52.220;0.152;2022-12-10T03:11:23;100966.54;;;3.23;52.93
76872;BME280;65840;52.220;0.152;2022-12-10T03:13:55;100964.30;;;2.75;52.47
76872;BME280;65840;52.220;0.152;2022-12-10T03:16:15;100958.42;;;2.96;52.68
76872;BME280;65840;52.220;0.152;2022-12-10T03:18:40;100952.09;;;3.01;52.08
76872;BME280;65840;52.220;0.152;2022-12-10T03:21:06;100954.99;;;2.96;52.35
76872;BME280;65840;52.220;0.152;2022-12-10T03:23:32;100956.60;;;2.74;52.89
76872;BME280;65840;52.220;0.152;2022-12-10T03:25:55;100958.60;;;2.80;52.25
76872;BME280;65840;52.220;0.152;2022-12-10T03:28:21;100955.94;;;2.96;52.34
76872;BME280;65840;52.220;0.152;2022-12-10T03:30:47;100957.73;;;3.01;52.76
76872;BME280;65840;52.220;0.152;2022-12-10T03:33:13;100956.27;;;2.95;53.10
76872;BME280;65840;52.220;0.152;2022-12-10T03:35:38;100959.22;;;2.96;52.99
76872;BME280;65840;52.220;0.152;2022-12-10T03:38:03;100958.87;;;2.92;52.58
76872;BME280;65840;52.220;0.152;2022-12-10T03:40:29;100956.44;;;2.92;52.89
76872;BME280;65840;52.220;0.152;2022-12-10T03:42:55;100958.87;;;2.79;52.09
76872;BME280;65840;52.220;0.152;2022-12-10T03:45:20;100953.48;;;2.75;53.13
76872;BME280;65840;52.220;0.152;2022-12-10T03:47:46;100955.85;;;2.72;53.52
76872;BME280;65840;52.220;0.152;2022-12-10T03:50:11;100956.36;;;2.75;53.29
76872;BME280;65840;52.220;0.152;2022-12-10T03:52:36;100955.89;;;2.63;53.17
76872;BME280;65840;52.220;0.152;2022-12-10T03:55:02;100959.07;;;2.81;53.00
76872;BME280;65840;52.220;0.152;2022-12-10T03:57:28;100955.70;;;2.64;53.01
76872;BME280;65840;52.220;0.152;2022-12-10T03:59:54;100952.84;;;2.62;52.44
76872;BME280;65840;52.220;0.152;2022-12-10T04:02:19;100954.26;;;2.61;52.93
76872;BME280;65840;52.220;0.152;2022-12-10T04:04:44;100955.24;;;2.55;52.79
76872;BME280;65840;52.220;0.152;2022-12-10T04:07:10;100954.05;;;2.56;53.20
76872;BME280;65840;52.220;0.152;2022-12-10T04:09:35;100955.01;;;2.64;52.69
76872;BME280;65840;52.220;0.152;2022-12-10T04:12:01;100961.64;;;2.78;53.31
76872;BME280;65840;52.220;0.152;2022-12-10T04:14:27;100958.82;;;2.53;52.92
76872;BME280;65840;52.220;0.152;2022-12-10T04:16:52;100959.37;;;2.62;52.73
76872;BME280;65840;52.220;0.152;2022-12-10T04:19:18;100956.31;;;2.66;52.67
76872;BME280;65840;52.220;0.152;2022-12-10T04:21:45;100953.80;;;2.91;52.01
76872;BME280;65840;52.220;0.152;2022-12-10T04:24:10;100952.09;;;2.84;52.33
76872;BME280;65840;52.220;0.152;2022-12-10T04:26:34;100952.12;;;2.61;52.42
76872;BME280;65840;52.220;0.152;2022-12-10T04:29:00;100948.82;;;2.61;52.08
76872;BME280;65840;52.220;0.152;2022-12-10T04:31:26;100948.76;;;3.05;51.93
76872;BME280;65840;52.220;0.152;2022-12-10T04:33:51;100948.90;;;3.08;51.87
76872;BME280;65840;52.220;0.152;2022-12-10T04:36:16;100946.73;;;2.82;51.83
76872;BME280;65840;52.220;0.152;2022-12-10T04:38:42;100945.92;;;3.09;51.82
76872;BME280;65840;52.220;0.152;2022-12-10T04:41:07;100946.39;;;3.28;51.56
76872;BME280;65840;52.220;0.152;2022-12-10T04:43:33;100950.93;;;3.16;51.88
76872;BME280;65840;52.220;0.152;2022-12-10T04:45:59;100951.84;;;2.69;51.89
76872;BME280;65840;52.220;0.152;2022-12-10T04:48:24;100956.02;;;3.21;51.72
76872;BME280;65840;52.220;0.152;2022-12-10T04:50:49;100959.05;;;3.16;51.78
76872;BME280;65840;52.220;0.152;2022-12-10T04:53:14;100953.64;;;3.26;51.76
76872;BME280;65840;52.220;0.152;2022-12-10T04:55:40;100957.86;;;3.24;51.54
76872;BME280;65840;52.220;0.152;2022-12-10T04:58:05;100956.02;;;3.19;51.94
76872;BME280;65840;52.220;0.152;2022-12-10T05:00:31;100956.10;;;3.07;51.42
76872;BME280;65840;52.220;0.152;2022-12-10T05:02:57;100959.67;;;3.42;51.53
76872;BME280;65840;52.220;0.152;2022-12-10T05:05:22;100967.99;;;2.99;51.70
76872;BME280;65840;52.220;0.152;2022-12-10T05:07:47;100963.54;;;3.12;51.54
76872;BME280;65840;52.220;0.152;2022-12-10T05:10:13;100966.83;;;3.29;51.62
76872;BME280;65840;52.220;0.152;2022-12-10T05:12:39;100961.06;;;2.93;51.43
76872;BME280;65840;52.220;0.152;2022-12-10T05:15:05;100959.68;;;3.16;51.35
76872;BME280;65840;52.220;0.152;2022-12-10T05:17:30;100955.87;;;3.34;51.04
76872;BME280;65840;52.220;0.152;2022-12-10T05:19:55;100957.46;;;2.98;50.89
76872;BME280;65840;52.220;0.152;2022-12-10T05:22:21;100955.29;;;3.32;51.34
76872;BME280;65840;52.220;0.152;2022-12-10T05:24:47;100955.01;;;3.40;51.28
76872;BME280;65840;52.220;0.152;2022-12-10T05:27:13;100951.78;;;3.08;51.38
76872;BME280;65840;52.220;0.152;2022-12-10T05:29:38;100952.06;;;3.04;51.70
76872;BME280;65840;52.220;0.152;2022-12-10T05:32:04;100950.21;;;3.11;51.61
76872;BME280;65840;52.220;0.152;2022-12-10T05:34:29;100946.72;;;2.83;51.45
76872;BME280;65840;52.220;0.152;2022-12-10T05:36:55;100941.13;;;3.19;51.75
76872;BME280;65840;52.220;0.152;2022-12-10T05:39:20;100948.40;;;2.93;53.04
76872;BME280;65840;52.220;0.152;2022-12-10T05:41:46;100950.46;;;2.88;53.19
76872;BME280;65840;52.220;0.152;2022-12-10T05:44:12;100954.34;;;2.94;53.50
76872;BME280;65840;52.220;0.152;2022-12-10T05:46:37;100952.20;;;2.87;54.36
76872;BME280;65840;52.220;0.152;2022-12-10T05:49:04;100951.82;;;3.03;53.97
76872;BME280;65840;52.220;0.152;2022-12-10T05:51:30;100953.43;;;3.27;53.97
76872;BME280;65840;52.220;0.152;2022-12-10T05:53:55;100946.58;;;3.14;53.72
76872;BME280;65840;52.220;0.152;2022-12-10T05:56:21;100946.59;;;3.05;53.48
76872;BME280;65840;52.220;0.152;2022-12-10T05:58:46;100941.68;;;3.20;53.42
76872;BME280;65840;52.220;0.152;2022-12-10T06:01:13;100946.07;;;3.31;53.46
76872;BME280;65840;52.220;0.152;2022-12-10T06:03:36;100944.21;;;3.48;52.53
